Stations météo

Publicité
Lus-La-Croix-Haute, France (7587): Température de l'air & dewpoint: 16.02.2017 07:00:00 - 22.02.2017 07:00:00 (CET)Lus-La-Croix-Haute, France (7587): Vitesse du vent & gusts: 16.02.2017 07:00:00 - 22.02.2017 07:00:00 (CET)Lus-La-Croix-Haute, France (7587): Direction du vent: 16.02.2017 07:00:00 - 22.02.2017 07:00:00 (CET)Lus-La-Croix-Haute, France (7587): Quantités de précipitations: 16.02.2017 07:00:00 - 22.02.2017 07:00:00 (CET)
Date & Time tt [°C] td [°C] ff [km/h] ff [knt] fx [km/h] fx [knt] dd rr [mm]
22.02.2017 07:00:00 - - - - - - - -
22.02.2017 06:00:00 5,2 2,4 5 3 35 19 N 0,0
22.02.2017 05:00:00 5,5 2,3 11 6 35 19 N 0,0
22.02.2017 04:00:00 5,9 3,1 11 6 50 27 NNW 0,0
22.02.2017 03:00:00 6,4 3,2 15 8 34 18 N 0,0
22.02.2017 02:00:00 6,4 3,9 11 6 34 18 NNW 0,0
22.02.2017 01:00:00 6,6 3,7 11 6 29 16 NNW -
22.02.2017 00:00:00 6,6 3,9 11 6 31 17 N 0,0
21.02.2017 23:00:00 6,8 3,9 13 7 39 21 NNW 0,0
21.02.2017 22:00:00 7,1 4,1 15 8 37 20 NNW 0,0
21.02.2017 21:00:00 7,2 4,3 5 3 28 15 N 0,0
21.02.2017 20:00:00 7,5 4,6 9 5 29 16 N 0,0
21.02.2017 19:00:00 7,9 4,1 13 7 35 19 NNW -
21.02.2017 18:00:00 8,1 4,5 16 9 41 22 NW 0,0
21.02.2017 17:00:00 9,1 4,5 16 9 41 22 NNW 0,0
21.02.2017 16:00:00 9,9 4,5 15 8 41 22 NNW 0,0
21.02.2017 15:00:00 10,5 4,4 16 9 34 18 NNW 0,0
21.02.2017 14:00:00 12,3 3,8 11 6 46 25 N 0,0
21.02.2017 13:00:00 12,4 3,6 18 10 67 36 NW -
21.02.2017 12:00:00 10,6 2,4 13 7 41 22 NNW 0,0
21.02.2017 11:00:00 9,6 1,5 8 4 41 22 NNW 0,0
21.02.2017 10:00:00 7,0 0,2 22 12 42 23 WNW 0,0
21.02.2017 09:00:00 4,8 -0,6 4 2 22 12 NW 0,0
21.02.2017 08:00:00 2,6 -0,7 11 6 26 14 N 0,0
21.02.2017 07:00:00 - - - - - - - -
21.02.2017 06:00:00 1,3 -0,6 13 7 24 13 NW 0,0
21.02.2017 05:00:00 2,0 -0,6 9 5 28 15 NW 0,0
21.02.2017 04:00:00 2,0 -0,9 9 5 24 13 NNW 0,0
21.02.2017 03:00:00 2,3 -0,5 4 2 24 13 NE 0,0
21.02.2017 02:00:00 2,5 -0,8 11 6 31 17 NNW 0,0
21.02.2017 01:00:00 2,3 -0,3 16 9 29 16 NW -
21.02.2017 00:00:00 2,7 -0,8 5 3 28 15 NE 0,0
20.02.2017 23:00:00 3,0 -0,6 11 6 35 19 NNW 0,0
20.02.2017 22:00:00 3,8 -0,8 16 9 35 19 NNW 0,0
20.02.2017 21:00:00 3,8 -1,0 18 10 35 19 NW 0,0
20.02.2017 20:00:00 3,7 -1,7 15 8 29 16 NW 0,0
20.02.2017 19:00:00 3,7 -2,1 11 6 24 13 NNW -
20.02.2017 18:00:00 4,9 -3,2 16 9 29 16 NW 0,0
20.02.2017 17:00:00 9,1 -2,5 18 10 46 25 NW 0,0
20.02.2017 16:00:00 10,3 -2,7 13 7 34 18 NNW 0,0
20.02.2017 15:00:00 10,3 -3,1 9 5 35 19 NNW 0,0
20.02.2017 14:00:00 10,2 -2,8 13 7 37 20 NW 0,0
20.02.2017 13:00:00 8,6 -4,3 11 6 34 18 NNE -
20.02.2017 12:00:00 8,5 -4,3 9 5 34 18 NNW 0,0
20.02.2017 11:00:00 6,6 -4,5 15 8 34 18 NW 0,0
20.02.2017 10:00:00 3,7 -3,8 18 10 34 18 WNW 0,0
20.02.2017 09:00:00 1,3 -3,6 16 9 29 16 NW 0,0
20.02.2017 08:00:00 -0,7 -4,9 8 4 21 11 N 0,0
20.02.2017 07:00:00 -0,4 -4,7 5 3 35 19 S -
20.02.2017 06:00:00 -0,1 -3,5 22 12 41 22 NW 0,0
20.02.2017 05:00:00 0,2 -4,3 9 5 26 14 NW 0,0
20.02.2017 04:00:00 -0,3 -4,2 15 8 34 18 NW 0,0
20.02.2017 03:00:00 0,3 -3,8 16 9 28 15 NW 0,0
20.02.2017 02:00:00 1,2 -5,1 11 6 28 15 NW 0,0
20.02.2017 01:00:00 1,5 -6,3 9 5 22 12 NNW -
20.02.2017 00:00:00 3,6 -8,1 8 4 29 16 N 0,0
19.02.2017 23:00:00 4,0 -7,2 11 6 28 15 NNE 0,0
19.02.2017 22:00:00 3,2 -5,7 8 4 22 12 NNE 0,0
19.02.2017 21:00:00 - - - - - - - -
19.02.2017 20:00:00 - - - - - - - -
19.02.2017 19:00:00 - - - - - - - -
19.02.2017 18:00:00 - - - - - - - -
19.02.2017 17:00:00 - - - - - - - -
19.02.2017 16:00:00 - - - - - - - -
19.02.2017 15:00:00 - - - - - - - -
19.02.2017 14:00:00 - - - - - - - -
19.02.2017 13:00:00 - - - - - - - -
19.02.2017 12:00:00 - - - - - - - -
19.02.2017 11:00:00 - - - - - - - -
19.02.2017 10:00:00 - - - - - - - -
19.02.2017 09:00:00 - - - - - - - -
19.02.2017 08:00:00 - - - - - - - -
19.02.2017 07:00:00 - - - - - - - -
19.02.2017 06:00:00 - - - - - - - -
19.02.2017 05:00:00 - - - - - - - -
19.02.2017 04:00:00 - - - - - - - -
19.02.2017 03:00:00 - - - - - - - -
19.02.2017 02:00:00 - - - - - - - -
19.02.2017 01:00:00 - - - - - - - -
19.02.2017 00:00:00 - - - - - - - -
18.02.2017 23:00:00 - - - - - - - -
18.02.2017 22:00:00 - - - - - - - -
18.02.2017 21:00:00 - - - - - - - -
18.02.2017 20:00:00 - - - - - - - -
18.02.2017 19:00:00 - - - - - - - -
18.02.2017 18:00:00 - - - - - - - -
18.02.2017 17:00:00 - - - - - - - -
18.02.2017 16:00:00 - - - - - - - -
18.02.2017 15:00:00 - - - - - - - -
18.02.2017 14:00:00 - - - - - - - -
18.02.2017 13:00:00 - - - - - - - -
18.02.2017 12:00:00 - - - - - - - -
18.02.2017 11:00:00 - - - - - - - -
18.02.2017 10:00:00 - - - - - - - -
18.02.2017 09:00:00 - - - - - - - -
18.02.2017 08:00:00 - - - - - - - -
18.02.2017 07:00:00 - - - - - - - -
18.02.2017 06:00:00 - - - - - - - -
18.02.2017 05:00:00 - - - - - - - -
18.02.2017 04:00:00 - - - - - - - -
18.02.2017 03:00:00 - - - - - - - -
18.02.2017 02:00:00 - - - - - - - -
18.02.2017 01:00:00 - - - - - - - -
18.02.2017 00:00:00 - - - - - - - -
17.02.2017 23:00:00 - - - - - - - -
17.02.2017 22:00:00 - - - - - - - -
17.02.2017 21:00:00 - - - - - - - -
17.02.2017 20:00:00 - - - - - - - -
17.02.2017 19:00:00 - - - - - - - -
17.02.2017 18:00:00 - - - - - - - -
17.02.2017 17:00:00 - - - - - - - -
17.02.2017 16:00:00 - - - - - - - -
17.02.2017 15:00:00 - - - - - - - -
17.02.2017 14:00:00 - - - - - - - -
17.02.2017 13:00:00 10,0 1,9 13 7 44 24 NW -
17.02.2017 12:00:00 9,6 2,4 15 8 35 19 NW 0,0
17.02.2017 11:00:00 7,2 2,1 15 8 41 22 NNW 0,0
17.02.2017 10:00:00 6,0 2,6 13 7 28 15 NW 0,0
17.02.2017 09:00:00 4,0 2,2 11 6 34 18 NW 0,0
17.02.2017 08:00:00 2,2 1,2 8 4 22 12 NNW 0,0
17.02.2017 07:00:00 1,4 0,7 8 4 18 10 N -
17.02.2017 06:00:00 0,9 0,9 8 4 18 10 N 0,0
17.02.2017 05:00:00 -0,6 -0,7 2 1 4 2 S 0,0
17.02.2017 04:00:00 -0,5 -0,6 2 1 8 4 SE 0,0
17.02.2017 03:00:00 -0,3 -0,4 2 1 9 5 NNW 0,0
17.02.2017 02:00:00 -0,1 -0,4 4 2 9 5 NE 0,0
17.02.2017 01:00:00 -0,3 -0,7 4 2 8 4 E -
17.02.2017 00:00:00 0,4 -0,3 4 2 8 4 N 0,0
16.02.2017 23:00:00 0,7 -0,5 2 1 8 4 WNW 0,0
16.02.2017 22:00:00 1,6 0,3 2 1 5 3 NNE 0,0
16.02.2017 21:00:00 2,3 0,4 4 2 8 4 NNW 0,0
16.02.2017 20:00:00 3,5 0,7 4 2 8 4 SSE 0,0
16.02.2017 19:00:00 5,1 0,7 5 3 24 13 NE -
16.02.2017 18:00:00 7,7 1,3 15 8 28 15 NNW 0,0
16.02.2017 17:00:00 10,8 1,9 13 7 24 13 NW 0,0
16.02.2017 16:00:00 12,4 2,8 11 6 22 12 WNW 0,0
16.02.2017 15:00:00 10,8 2,4 11 6 24 13 WNW 0,0
16.02.2017 14:00:00 14,1 2,9 13 7 28 15 NW 0,0
16.02.2017 13:00:00 13,7 1,7 4 2 16 9 SSE -
16.02.2017 12:00:00 11,6 1,5 4 2 9 5 S 0,0
16.02.2017 11:00:00 7,0 3,4 4 2 8 4 S 0,0
16.02.2017 10:00:00 1,9 1,9 2 1 4 2 WNW 0,0
16.02.2017 09:00:00 -0,8 -0,9 2 1 4 2 ENE 0,0
16.02.2017 08:00:00 -2,4 -2,7 2 1 4 2 NNW 0,0
16.02.2017 07:00:00 -2,2 -2,2 4 2 8 4 NW -

tt = Température de l'air
td = dewpoint
ff = Vitesse du vent
fx = gusts
dd = Direction du vent
rr = Quantités de précipitations

stations d'obs. à proximité